Andrea — WDF2417 — position and weather

sailwx.info

Track history (hours):
 
Tides and Currents Weather Stations Pressure Air Temp Water Temp Dewpoint Dewpoint Depression Visibility Wind Speed Wind Dir Waves Ship Positions

Andrea

Owner: Enterprise Marine Services, LLC, San Antonio, TX. More information available from US FCC via Universal Licensing System and Coast Guard Vessel Documentation Center.

Last reported at 2017-Oct-20 13:30 UTC. Time now 2017-Oct-20 14:16 UTC.
Position N 40°40' W 074°00'.

; draft 4 m.

Type: Towing. MMSI: 367003310.

Date/timePositionNaut miles runAvg speedWind from/ knotsBaromVisibWave heightAir tempDewpointWater temp
2017-Oct-20 13:30N 40°40' W 074°00'0 0.0
2017-Oct-20 13:01N 40°40' W 074°00'0 0.0
2017-Oct-20 12:31N 40°40' W 074°00'0 0.0
2017-Oct-20 12:00N 40°40' W 074°00'0 0.0
2017-Oct-20 11:31N 40°40' W 074°00'0 0.0
2017-Oct-20 11:00N 40°40' W 074°00'0 0.0
2017-Oct-20 10:31N 40°40' W 074°00'0 0.0
2017-Oct-20 10:01N 40°40' W 074°00'0 0.0
2017-Oct-20 09:30N 40°40' W 074°00'0 0.0
2017-Oct-20 09:01N 40°40' W 074°00'0 0.0
2017-Oct-20 08:30N 40°40' W 074°00'0 0.0
2017-Oct-20 08:01N 40°40' W 074°00'0 0.0
2017-Oct-20 07:30N 40°40' W 074°00'0 0.0
2017-Oct-20 07:01N 40°40' W 074°00'0 0.0
2017-Oct-20 06:31N 40°40' W 074°00'0 0.0
2017-Oct-20 06:00N 40°40' W 074°00'0 0.0
2017-Oct-20 05:30N 40°40' W 074°00'0 0.0
2017-Oct-20 05:01N 40°40' W 074°00'0 0.0
2017-Oct-20 04:30N 40°40' W 074°00'0 0.0
2017-Oct-20 04:01N 40°40' W 074°00'0 0.0
2017-Oct-20 03:30N 40°40' W 074°00'0 0.0
2017-Oct-20 03:01N 40°40' W 074°00'0 0.0
2017-Oct-20 02:31N 40°40' W 074°00'0 0.0
2017-Oct-20 02:00N 40°40' W 074°00'0 0.0
2017-Oct-20 01:30N 40°40' W 074°00'0 0.0
2017-Oct-20 01:01N 40°40' W 074°00'0 0.0
2017-Oct-20 00:31N 40°40' W 074°00'0 0.0
2017-Oct-20 00:00N 40°40' W 074°00'0 0.0
2017-Oct-19 23:30N 40°40' W 074°00'1 2.9
2017-Oct-19 23:01N 40°41' W 074°02'1 1.8
2017-Oct-19 22:30N 40°41' W 074°03'0 0.4
2017-Oct-19 22:00N 40°41' W 074°03'2 4.2
2017-Oct-19 21:31N 40°40' W 074°00'0 0.1
2017-Oct-19 21:01N 40°40' W 074°00'0 0.0
2017-Oct-19 16:14N 40°40' W 074°00'0 0.2
2017-Oct-19 16:00N 40°40' W 074°00'0 0.0
2017-Oct-19 15:31N 40°40' W 074°00'0 0.1
2017-Oct-19 15:01N 40°40' W 074°00'0 0.0
2017-Oct-19 14:31N 40°40' W 074°00'0 0.0
2017-Oct-19 14:00N 40°40' W 074°00'0 0.0
2017-Oct-19 13:31N 40°40' W 074°00'0 0.0
2017-Oct-19 13:01N 40°40' W 074°00'0 0.0
2017-Oct-19 12:31N 40°40' W 074°00'0 0.0
2017-Oct-19 12:01N 40°40' W 074°00'0 0.0
2017-Oct-19 11:30N 40°40' W 074°00'0 0.0
2017-Oct-19 11:01N 40°40' W 074°00'0 0.0
2017-Oct-19 10:31N 40°40' W 074°00'0 0.0
2017-Oct-19 10:01N 40°40' W 074°00'0 0.0
2017-Oct-19 09:31N 40°40' W 074°00'0 0.0
2017-Oct-19 09:01N 40°40' W 074°00'0 0.0
2017-Oct-19 08:31N 40°40' W 074°00'0 0.0
2017-Oct-19 08:00N 40°40' W 074°00'0 0.0
2017-Oct-19 07:31N 40°40' W 074°00'0 0.0
2017-Oct-19 07:00N 40°40' W 074°00'0 0.5
2017-Oct-19 06:31N 40°40' W 074°00'2 4.0
2017-Oct-19 06:00N 40°40' W 074°03'1 2.0
2017-Oct-19 05:30N 40°41' W 074°03'3 5.4
2017-Oct-19 05:00N 40°39' W 074°05'0 0.1
2017-Oct-19 04:30N 40°39' W 074°05'0 0.5
2017-Oct-19 03:59N 40°39' W 074°06'0 0.0
2017-Oct-19 03:30N 40°39' W 074°06'0 0.0
2017-Oct-19 03:00N 40°39' W 074°06'0 0.0
2017-Oct-19 02:30N 40°39' W 074°06'0 0.0
2017-Oct-19 02:00N 40°39' W 074°06'0 0.0
2017-Oct-19 01:30N 40°39' W 074°06'0 0.0
2017-Oct-19 01:01N 40°39' W 074°06'0 0.0
2017-Oct-19 00:30N 40°39' W 074°06'1 1.5
2017-Oct-19 00:01N 40°39' W 074°05'0 0.3
2017-Oct-18 23:30N 40°39' W 074°05'3 6.7
2017-Oct-18 23:01N 40°40' W 074°01'1 1.1
2017-Oct-18 22:30N 40°40' W 074°00'0 0.0
2017-Oct-18 22:00N 40°40' W 074°00'0 0.0
2017-Oct-18 21:30N 40°40' W 074°00'0 0.0
2017-Oct-18 21:01N 40°40' W 074°00'2 4.8
2017-Oct-18 20:31N 40°39' W 074°03'3 6.0
2017-Oct-18 20:00N 40°39' W 074°07'1 1.8
2017-Oct-18 19:30N 40°39' W 074°06'1 1.3
2017-Oct-18 19:00N 40°39' W 074°05'4 7.6
2017-Oct-18 18:31N 40°40' W 074°00'0 0.1
2017-Oct-18 18:00N 40°40' W 074°00'0 0.0
2017-Oct-18 17:30N 40°40' W 074°00'0 0.0
2017-Oct-18 17:01N 40°40' W 074°00'0 0.0
2017-Oct-18 16:30N 40°40' W 074°00'0 0.0
2017-Oct-18 16:00N 40°40' W 074°00'0 0.0
2017-Oct-18 15:31N 40°40' W 074°00'0 0.0
2017-Oct-18 15:00N 40°40' W 074°00'0 0.0
2017-Oct-18 14:00N 40°40' W 074°00'1 2.7
2017-Oct-18 13:30N 40°41' W 074°02'1 1.8
2017-Oct-18 13:01N 40°41' W 074°03'1 2.8
2017-Oct-18 12:30N 40°40' W 074°01'1 1.7
2017-Oct-18 12:01N 40°40' W 074°00'0 0.1
2017-Oct-18 11:30N 40°40' W 074°00'0 0.0
2017-Oct-18 11:00N 40°40' W 074°00'0 0.0
2017-Oct-18 10:30N 40°40' W 074°00'0 0.0
2017-Oct-18 10:01N 40°40' W 074°00'0 0.0
2017-Oct-18 09:30N 40°40' W 074°00'0 0.0
2017-Oct-18 09:01N 40°40' W 074°00'0 0.0
2017-Oct-18 08:31N 40°40' W 074°00'0 0.0
2017-Oct-18 08:00N 40°40' W 074°00'0 0.0
2017-Oct-18 07:31N 40°40' W 074°00'0 0.0
2017-Oct-18 07:01N 40°40' W 074°00'0 0.0
2017-Oct-18 06:30N 40°40' W 074°00'0 0.1
2017-Oct-18 06:00N 40°40' W 074°00'4 7.6
2017-Oct-18 05:30N 40°39' W 074°05'4 8.7
2017-Oct-18 05:00N 40°39' W 074°11'1 1.8
2017-Oct-18 04:30N 40°38' W 074°12'1 1.2
2017-Oct-18 04:00N 40°38' W 074°12'3 5.0
2017-Oct-18 03:30N 40°39' W 074°09'3 6.1
2017-Oct-18 03:01N 40°39' W 074°05'4 7.2
2017-Oct-18 02:30N 40°40' W 074°00'0 0.4
2017-Oct-18 02:00N 40°40' W 074°00'0 0.0
2017-Oct-18 01:31N 40°40' W 074°00'0 0.0
2017-Oct-18 01:01N 40°40' W 074°00'0 0.0
2017-Oct-18 00:30N 40°40' W 074°00'0 0.0
2017-Oct-18 00:00N 40°40' W 074°00'0 0.0
2017-Oct-17 23:30N 40°40' W 074°00'2 4.1
2017-Oct-17 23:01N 40°39' W 074°02'3 6.8
2017-Oct-17 22:31N 40°39' W 074°07'4 7.3
2017-Oct-17 22:00N 40°38' W 074°12'2 4.5
2017-Oct-17 21:30N 40°36' W 074°12'0 0.0
2017-Oct-17 21:00N 40°36' W 074°12'0 0.0
2017-Oct-17 20:30N 40°36' W 074°12'0 0.0
2017-Oct-17 20:00N 40°36' W 074°12'0 0.0
2017-Oct-17 19:29N 40°36' W 074°12'0 0.0
2017-Oct-17 19:00N 40°36' W 074°12'0 0.0
2017-Oct-17 18:30N 40°36' W 074°12'0 0.0
2017-Oct-17 18:00N 40°36' W 074°12'0 0.0
2017-Oct-17 17:29N 40°36' W 074°12'0 0.0
2017-Oct-17 17:00N 40°36' W 074°12'0 0.0
2017-Oct-17 16:30N 40°36' W 074°12'0 0.0
2017-Oct-17 16:00N 40°36' W 074°12'0 0.0
2017-Oct-17 15:30N 40°36' W 074°12'0 0.0
2017-Oct-17 14:59N 40°36' W 074°12'0 0.0
2017-Oct-17 14:30N 40°36' W 074°12'0 0.0
2017-Oct-17 14:00N 40°36' W 074°12'0 0.0
2017-Oct-17 13:30N 40°36' W 074°12'0 0.0
2017-Oct-17 12:59N 40°36' W 074°12'0 0.0
2017-Oct-17 12:30N 40°36' W 074°12'0 0.0
2017-Oct-17 12:00N 40°36' W 074°12'0 0.0
2017-Oct-17 11:30N 40°36' W 074°12'0 0.0
2017-Oct-17 11:00N 40°36' W 074°12'0 0.0
2017-Oct-17 10:30N 40°36' W 074°12'0 0.0
2017-Oct-17 10:00N 40°36' W 074°12'1 1.2
2017-Oct-17 09:29N 40°37' W 074°12'2 5.0
2017-Oct-17 09:01N 40°39' W 074°11'4 7.3
2017-Oct-17 08:30N 40°39' W 074°06'3 6.0
2017-Oct-17 08:01N 40°41' W 074°03'0 0.2
2017-Oct-17 07:31N 40°41' W 074°03'0 0.0
2017-Oct-17 07:00N 40°41' W 074°03'1 2.4
2017-Oct-17 06:30N 40°40' W 074°04'4 7.1
2017-Oct-17 06:00N 40°39' W 074°08'2 4.8
2017-Oct-17 05:30N 40°41' W 074°09'0 0.2
2017-Oct-17 05:00N 40°41' W 074°09'2 4.7
2017-Oct-17 04:30N 40°39' W 074°08'2 3.7
2017-Oct-17 04:00N 40°39' W 074°06'0 0.0
2017-Oct-17 03:30N 40°39' W 074°06'0 0.0
2017-Oct-17 03:00N 40°39' W 074°06'0 0.0
2017-Oct-17 02:30N 40°39' W 074°06'0 0.0
2017-Oct-17 02:00N 40°39' W 074°06'0 0.0
2017-Oct-17 01:30N 40°39' W 074°06'0 0.0
2017-Oct-17 01:00N 40°39' W 074°06'0 0.0
2017-Oct-17 00:30N 40°39' W 074°06'0 0.0
2017-Oct-17 00:00N 40°39' W 074°06'0 0.0
2017-Oct-16 23:30N 40°39' W 074°06'0 0.0
2017-Oct-16 23:00N 40°39' W 074°06'0 0.0
2017-Oct-16 22:30N 40°39' W 074°06'0 0.0
2017-Oct-16 22:00N 40°39' W 074°06'0 0.0
2017-Oct-16 21:30N 40°39' W 074°06'4 7.2
2017-Oct-16 21:00N 40°41' W 074°02'1 2.9
2017-Oct-16 20:31N 40°40' W 074°00'0 0.1
2017-Oct-16 20:01N 40°40' W 074°00'4 7.3
2017-Oct-16 19:30N 40°39' W 074°05'3 5.8
2017-Oct-16 19:00N 40°39' W 074°09'2 3.3
2017-Oct-16 18:30N 40°41' W 074°09'0 0.0
2017-Oct-16 18:01N 40°41' W 074°09'0 0.0
2017-Oct-16 17:30N 40°41' W 074°09'1 2.2
2017-Oct-16 17:00N 40°40' W 074°09'2 3.0
2017-Oct-16 16:29N 40°39' W 074°07'1 0.9
2017-Oct-16 15:30N 40°39' W 074°06'0 0.0
2017-Oct-16 15:00N 40°39' W 074°06'0 0.0
2017-Oct-16 14:30N 40°39' W 074°06'0 0.0
2017-Oct-16 13:30N 40°39' W 074°06'0 0.0
2017-Oct-16 13:00N 40°39' W 074°06'0 0.0
2017-Oct-16 12:30N 40°39' W 074°06'0 0.0
2017-Oct-16 12:00N 40°39' W 074°06'0 0.0
2017-Oct-16 11:30N 40°39' W 074°06'0 0.7
2017-Oct-16 11:01N 40°39' W 074°06'0 0.7
2017-Oct-16 10:30N 40°39' W 074°06'0 0.0
2017-Oct-16 10:00N 40°39' W 074°06'0 0.0
2017-Oct-16 09:30N 40°39' W 074°06'0 0.0
2017-Oct-16 09:00N 40°39' W 074°06'0 0.0
2017-Oct-16 08:30N 40°39' W 074°06'0 0.0
2017-Oct-16 08:01N 40°39' W 074°06'0 0.0
2017-Oct-16 07:31N 40°39' W 074°06'0 0.0
2017-Oct-16 07:01N 40°39' W 074°06'0 0.0
2017-Oct-16 06:30N 40°39' W 074°06'0 0.0
2017-Oct-16 06:00N 40°39' W 074°06'0 0.0
2017-Oct-16 05:30N 40°39' W 074°06'0 0.1
2017-Oct-16 05:00N 40°39' W 074°06'1 1.1
2017-Oct-16 04:31N 40°39' W 074°06'1 1.7
2017-Oct-16 04:00N 40°39' W 074°05'3 5.1
2017-Oct-16 03:30N 40°40' W 074°03'0 0.7
2017-Oct-16 03:00N 40°41' W 074°03'0 0.0
2017-Oct-16 02:31N 40°41' W 074°03'0 0.0
2017-Oct-16 02:00N 40°41' W 074°03'0 0.0
2017-Oct-16 01:31N 40°41' W 074°03'0 0.2
2017-Oct-16 01:00N 40°41' W 074°03'1 2.4
2017-Oct-16 00:31N 40°40' W 074°01'1 2.3
2017-Oct-16 00:00N 40°40' W 074°00'0 0.0
2017-Oct-15 23:31N 40°40' W 074°00'0 0.0
2017-Oct-15 23:01N 40°40' W 074°00'0 0.0
2017-Oct-15 22:30N 40°40' W 074°00'0 0.0
2017-Oct-15 22:00N 40°40' W 074°00'0 0.0
2017-Oct-15 21:31N 40°40' W 074°00'0 0.0
2017-Oct-15 21:00N 40°40' W 074°00'0 0.0
2017-Oct-15 20:31N 40°40' W 074°00'0 0.0
2017-Oct-15 20:00N 40°40' W 074°00'0 0.1
2017-Oct-15 19:30N 40°40' W 074°00'0 0.0
2017-Oct-15 19:01N 40°40' W 074°00'0 0.0
2017-Oct-15 18:30N 40°40' W 074°00'0 0.0
2017-Oct-15 18:00N 40°40' W 074°00'0 0.0
2017-Oct-15 17:30N 40°40' W 074°00'0 0.0
2017-Oct-15 17:00N 40°40' W 074°00'0 0.0
2017-Oct-15 16:31N 40°40' W 074°00'0 0.0
2017-Oct-15 16:00N 40°40' W 074°00'0 0.0
2017-Oct-15 15:31N 40°40' W 074°00'0 0.0
2017-Oct-15 15:00N 40°40' W 074°00'6 5.7
2017-Oct-15 14:00N 40°39' W 074°07'4 7.4
2017-Oct-15 13:30N 40°37' W 074°12'2 4.5
2017-Oct-15 12:59N 40°35' W 074°13'0 0.0
2017-Oct-15 12:29N 40°35' W 074°13'0 0.0
2017-Oct-15 11:46N 40°35' W 074°13'0 0.0
2017-Oct-15 11:26N 40°35' W 074°13'0 0.0
2017-Oct-15 11:00N 40°35' W 074°13'0 0.0
2017-Oct-15 10:29N 40°35' W 074°13'0 0.0
2017-Oct-15 09:58N 40°35' W 074°13'0 0.0
2017-Oct-15 09:21N 40°35' W 074°13'0 0.0
2017-Oct-15 08:58N 40°35' W 074°13'0 0.0
2017-Oct-15 08:30N 40°35' W 074°13'0 0.0
2017-Oct-15 07:58N 40°35' W 074°13'0 0.0
2017-Oct-15 07:28N 40°35' W 074°13'0 0.0
2017-Oct-15 06:59N 40°35' W 074°13'0 0.0
2017-Oct-15 06:22N 40°35' W 074°13'0 0.0
2017-Oct-15 05:59N 40°35' W 074°13'0 0.0
2017-Oct-15 05:28N 40°35' W 074°13'0 0.0
2017-Oct-15 04:58N 40°35' W 074°13'0 0.0
2017-Oct-15 04:29N 40°35' W 074°13'0 0.0
2017-Oct-15 03:59N 40°35' W 074°13'0 0.0
2017-Oct-15 03:29N 40°35' W 074°13'0 0.0
2017-Oct-15 02:59N 40°35' W 074°13'0 0.0
2017-Oct-15 02:30N 40°35' W 074°13'0 0.0
2017-Oct-15 02:00N 40°35' W 074°13'0 0.0
2017-Oct-15 01:28N 40°35' W 074°13'0 0.0
2017-Oct-15 00:58N 40°35' W 074°13'0 0.0
2017-Oct-15 00:30N 40°35' W 074°13'0 0.2
2017-Oct-14 23:57N 40°35' W 074°12'2 5.4
2017-Oct-14 23:29N 40°38' W 074°12'0 0.2
2017-Oct-14 22:55N 40°38' W 074°12'0 0.1
2017-Oct-14 22:30N 40°38' W 074°12'0 0.0
2017-Oct-14 21:59N 40°38' W 074°12'0 0.0
2017-Oct-14 21:30N 40°38' W 074°12'0 0.0
2017-Oct-14 21:00N 40°38' W 074°12'0 0.0
2017-Oct-14 20:31N 40°38' W 074°12'0 0.0
2017-Oct-14 20:00N 40°38' W 074°12'0 0.0
2017-Oct-14 19:30N 40°38' W 074°12'0 0.0
2017-Oct-14 19:00N 40°38' W 074°12'0 0.0
2017-Oct-14 18:30N 40°38' W 074°12'0 0.0
2017-Oct-14 18:00N 40°38' W 074°12'0 0.0
2017-Oct-14 17:30N 40°38' W 074°12'0 0.0
2017-Oct-14 17:00N 40°38' W 074°12'0 0.0
2017-Oct-14 16:30N 40°38' W 074°12'0 0.0
2017-Oct-14 16:01N 40°38' W 074°12'0 0.0
2017-Oct-14 15:30N 40°38' W 074°12'0 0.0
2017-Oct-14 15:01N 40°38' W 074°12'0 0.0
2017-Oct-14 14:30N 40°38' W 074°12'0 0.0
2017-Oct-14 14:00N 40°38' W 074°12'0 0.0
2017-Oct-14 13:30N 40°38' W 074°12'0 0.0
2017-Oct-14 13:01N 40°38' W 074°12'0 0.0
2017-Oct-14 12:31N 40°38' W 074°12'0 0.0
2017-Oct-14 12:01N 40°38' W 074°12'0 0.0
2017-Oct-14 11:30N 40°38' W 074°12'0 0.0
2017-Oct-14 11:00N 40°38' W 074°12'0 0.0
2017-Oct-14 10:30N 40°38' W 074°12'0 0.0
2017-Oct-14 10:00N 40°38' W 074°12'0 0.0
2017-Oct-14 09:30N 40°38' W 074°12'0 0.0
2017-Oct-14 09:00N 40°38' W 074°12'0 0.8
2017-Oct-14 08:30N 40°38' W 074°12'4 6.7
2017-Oct-14 07:59N 40°39' W 074°08'2 4.6
2017-Oct-14 07:30N 40°39' W 074°05'3 5.7
2017-Oct-14 07:01N 40°40' W 074°01'1 1.1
2017-Oct-14 06:20N 40°40' W 074°00'0 0.0
2017-Oct-14 06:01N 40°40' W 074°00'0 0.0
2017-Oct-14 05:30N 40°40' W 074°00'0 0.0
2017-Oct-14 05:00N 40°40' W 074°00'0 0.0
2017-Oct-14 04:29N 40°40' W 074°00'0 0.0
2017-Oct-14 03:58N 40°40' W 074°00'0 0.0
2017-Oct-14 03:30N 40°40' W 074°00'2 4.9
2017-Oct-14 03:00N 40°39' W 074°03'4 8.7
2017-Oct-14 02:30N 40°39' W 074°09'2 4.9
2017-Oct-14 02:01N 40°38' W 074°12'0 0.0
2017-Oct-14 01:31N 40°38' W 074°12'0 0.0
2017-Oct-14 01:00N 40°38' W 074°12'0 0.0
2017-Oct-14 00:30N 40°38' W 074°12'2 3.6
2017-Oct-14 00:00N 40°39' W 074°09'4 8.1
2017-Oct-13 23:30N 40°39' W 074°04'3 6.4
2017-Oct-13 22:59N 40°40' W 074°00'0 0.0
2017-Oct-13 22:30N 40°40' W 074°00'0 0.0
2017-Oct-13 22:00N 40°40' W 074°00'0 0.0
2017-Oct-13 21:30N 40°40' W 074°00'0 0.0
2017-Oct-13 21:00N 40°40' W 074°00'0 0.0
2017-Oct-13 20:30N 40°40' W 074°00'0 0.1
2017-Oct-13 20:00N 40°40' W 074°00'0 0.0
2017-Oct-13 19:30N 40°40' W 074°00'0 0.1
2017-Oct-13 19:00N 40°40' W 074°00'0 0.2
2017-Oct-13 18:30N 40°40' W 074°00'0 0.1
2017-Oct-13 18:00N 40°40' W 074°00'0 0.0
2017-Oct-13 17:30N 40°40' W 074°00'0 0.0
2017-Oct-13 17:00N 40°40' W 074°00'0 0.0
2017-Oct-13 16:30N 40°40' W 074°00'0 0.0
2017-Oct-13 16:00N 40°40' W 074°00'0 0.0
2017-Oct-13 15:30N 40°40' W 074°00'0 0.0
2017-Oct-13 15:00N 40°40' W 074°00'0 0.0
2017-Oct-13 14:30N 40°40' W 074°00'0 0.0
2017-Oct-13 14:00N 40°40' W 074°00'0 0.0
2017-Oct-13 13:30N 40°40' W 074°00'0 0.0
2017-Oct-13 13:00N 40°40' W 074°00'0 0.0
2017-Oct-13 12:30N 40°40' W 074°00'0 0.0
2017-Oct-13 11:59N 40°40' W 074°00'0 0.0
2017-Oct-13 11:30N 40°40' W 074°00'0 0.0
2017-Oct-13 11:00N 40°40' W 074°00'0 0.0
2017-Oct-13 10:30N 40°40' W 074°00'0 0.0
2017-Oct-13 10:00N 40°40' W 074°00'0 0.0
2017-Oct-13 09:30N 40°40' W 074°00'0 0.0
2017-Oct-13 09:00N 40°40' W 074°00'0 0.0
2017-Oct-13 08:30N 40°40' W 074°00'2 3.3
2017-Oct-13 08:00N 40°40' W 074°02'4 7.9
2017-Oct-13 07:30N 40°39' W 074°07'1 1.5
2017-Oct-13 07:00N 40°39' W 074°06'3 5.7
2017-Oct-13 06:30N 40°41' W 074°03'2 4.2
2017-Oct-13 06:00N 40°40' W 074°00'0 0.3
2017-Oct-13 05:30N 40°40' W 074°00'0 0.0
2017-Oct-13 05:00N 40°40' W 074°00'0 0.0
2017-Oct-13 04:30N 40°40' W 074°00'0 0.0
2017-Oct-13 04:00N 40°40' W 074°00'0 0.0
2017-Oct-13 03:29N 40°40' W 074°00'0 0.0
2017-Oct-13 03:00N 40°40' W 074°00'0 0.0
2017-Oct-13 02:30N 40°40' W 074°00'0 0.0
2017-Oct-13 02:00N 40°40' W 074°00'0 0.0
2017-Oct-13 01:30N 40°40' W 074°00'0 0.0
2017-Oct-13 01:00N 40°40' W 074°00'0 0.0
2017-Oct-13 00:29N 40°40' W 074°00'0 0.1
2017-Oct-13 00:00N 40°40' W 074°00'1 1.8
2017-Oct-12 23:30N 40°40' W 074°01'1 2.8
2017-Oct-12 23:00N 40°41' W 074°03'0 0.1
2017-Oct-12 22:31N 40°41' W 074°03'2 4.3
2017-Oct-12 22:00N 40°40' W 074°00'0 0.1
2017-Oct-12 21:30N 40°40' W 074°00'0 0.0
2017-Oct-12 21:00N 40°40' W 074°00'0 0.0
2017-Oct-12 20:30N 40°40' W 074°00'0 0.0
2017-Oct-12 19:59N 40°40' W 074°00'0 0.0
2017-Oct-12 19:30N 40°40' W 074°00'0 0.0
2017-Oct-12 19:00N 40°40' W 074°00'0 0.0
2017-Oct-12 18:30N 40°40' W 074°00'0 0.0
2017-Oct-12 18:00N 40°40' W 074°00'0 0.0
2017-Oct-12 17:30N 40°40' W 074°00'0 0.0
2017-Oct-12 17:00N 40°40' W 074°00'0 0.0
2017-Oct-12 16:30N 40°40' W 074°00'0 0.0
2017-Oct-12 16:01N 40°40' W 074°00'0 0.0
2017-Oct-12 15:30N 40°40' W 074°00'0 0.0
2017-Oct-12 15:00N 40°40' W 074°00'0 0.0
2017-Oct-12 14:30N 40°40' W 074°00'0 0.0
2017-Oct-12 14:00N 40°40' W 074°00'0 0.0
2017-Oct-12 13:30N 40°40' W 074°00'0 0.0
2017-Oct-12 13:00N 40°40' W 074°00'0 0.0
2017-Oct-12 12:31N 40°40' W 074°00'0 0.0
2017-Oct-12 12:00N 40°40' W 074°00'0 0.0
2017-Oct-12 11:30N 40°40' W 074°00'0 0.0
2017-Oct-12 11:00N 40°40' W 074°00'0 0.0
2017-Oct-12 10:30N 40°40' W 074°00'0 0.0
2017-Oct-12 10:00N 40°40' W 074°00'0 0.0
2017-Oct-12 09:30N 40°40' W 074°00'0 0.0
2017-Oct-12 09:00N 40°40' W 074°00'0 0.0
2017-Oct-12 08:30N 40°40' W 074°00'0 0.0
2017-Oct-12 08:00N 40°40' W 074°00'0 0.0
2017-Oct-12 07:30N 40°40' W 074°00'0 0.0
2017-Oct-12 07:00N 40°40' W 074°00'0 0.0
2017-Oct-12 06:30N 40°40' W 074°00'0 0.0
2017-Oct-12 06:00N 40°40' W 074°00'0 0.0
2017-Oct-12 05:30N 40°40' W 074°00'0 0.0
2017-Oct-12 05:00N 40°40' W 074°00'0 0.0
2017-Oct-12 04:30N 40°40' W 074°00'0 0.0
2017-Oct-12 04:00N 40°40' W 074°00'0 0.0
2017-Oct-12 03:30N 40°40' W 074°00'0 0.0
2017-Oct-12 03:00N 40°40' W 074°00'0 0.0
2017-Oct-12 02:31N 40°40' W 074°00'0 0.0
2017-Oct-12 02:00N 40°40' W 074°00'0 0.0
2017-Oct-12 01:30N 40°40' W 074°00'0 0.0
2017-Oct-12 01:00N 40°40' W 074°00'0 0.0
2017-Oct-12 00:30N 40°40' W 074°00'0 0.0
2017-Oct-12 00:00N 40°40' W 074°00'1 1.9
2017-Oct-11 23:30N 40°40' W 074°01'1 2.7
2017-Oct-11 23:00N 40°41' W 074°03'0 0.0
2017-Oct-11 22:30N 40°41' W 074°03'0 0.0
2017-Oct-11 22:00N 40°41' W 074°03'0 0.0
2017-Oct-11 21:30N 40°41' W 074°03'0 0.1
2017-Oct-11 21:00N 40°41' W 074°03'0 0.0
2017-Oct-11 20:30N 40°41' W 074°03'0 0.0
2017-Oct-11 20:00N 40°41' W 074°03'0 0.0
2017-Oct-11 19:30N 40°41' W 074°03'0 0.1
2017-Oct-11 18:58N 40°41' W 074°03'0 0.1
2017-Oct-11 18:30N 40°41' W 074°03'0 0.1
2017-Oct-11 18:00N 40°41' W 074°03'0 0.0
2017-Oct-11 17:31N 40°41' W 074°03'0 0.1
2017-Oct-11 17:00N 40°41' W 074°03'2 0.1
2017-Oct-11 00:00N 40°40' W 074°00'0 0.0
2017-Oct-10 23:30N 40°40' W 074°00'0 0.0
2017-Oct-10 23:00N 40°40' W 074°00'0 0.0
2017-Oct-10 22:31N 40°40' W 074°00'0 0.0
2017-Oct-10 22:00N 40°40' W 074°00'0 0.0
2017-Oct-10 21:31N 40°40' W 074°00'0 0.0
2017-Oct-10 21:00N 40°40' W 074°00'0 0.0
2017-Oct-10 20:31N 40°40' W 074°00'0 0.0
2017-Oct-10 20:01N 40°40' W 074°00'0 0.0
2017-Oct-10 19:31N 40°40' W 074°00'0 0.0
2017-Oct-10 19:01N 40°40' W 074°00'0 0.0
2017-Oct-10 18:30N 40°40' W 074°00'0 0.0
2017-Oct-10 18:00N 40°40' W 074°00'0 0.1
2017-Oct-10 17:30N 40°40' W 074°00'0 0.0
2017-Oct-10 17:01N 40°40' W 074°00'0 0.0
2017-Oct-10 16:31N 40°40' W 074°00'0 0.0
2017-Oct-10 16:01N 40°40' W 074°00'0 0.0
2017-Oct-10 15:31N 40°40' W 074°00'0 0.1
2017-Oct-10 15:01N 40°40' W 074°00'0 0.0
2017-Oct-10 14:01N 40°40' W 074°00'0 0.0
2017-Oct-10 13:31N 40°40' W 074°00'  
Track history (hours):
 
Tides and Currents Weather Stations Pressure Air Temp Water Temp Dewpoint Dewpoint Depression Visibility Wind Speed Wind Dir Waves Ship Positions

Andrea

Owner: Enterprise Marine Services, LLC, San Antonio, TX. More information available from US FCC via Universal Licensing System and Coast Guard Vessel Documentation Center.

Last reported at 2017-Oct-20 13:30 UTC. Time now 2017-Oct-20 14:16 UTC.
Position N 40°40' W 074°00'.

; draft 4 m.

Type: Towing. MMSI: 367003310.

Date/timePositionNaut miles runAvg speedWind from/ knotsBaromVisibWave heightAir tempDewpointWater temp
2017-Oct-20 13:30N 40°40' W 074°00'0 0.0
2017-Oct-20 13:01N 40°40' W 074°00'0 0.0
2017-Oct-20 12:31N 40°40' W 074°00'0 0.0
2017-Oct-20 12:00N 40°40' W 074°00'0 0.0
2017-Oct-20 11:31N 40°40' W 074°00'0 0.0
2017-Oct-20 11:00N 40°40' W 074°00'0 0.0
2017-Oct-20 10:31N 40°40' W 074°00'0 0.0
2017-Oct-20 10:01N 40°40' W 074°00'0 0.0
2017-Oct-20 09:30N 40°40' W 074°00'0 0.0
2017-Oct-20 09:01N 40°40' W 074°00'0 0.0
2017-Oct-20 08:30N 40°40' W 074°00'0 0.0
2017-Oct-20 08:01N 40°40' W 074°00'0 0.0
2017-Oct-20 07:30N 40°40' W 074°00'0 0.0
2017-Oct-20 07:01N 40°40' W 074°00'0 0.0
2017-Oct-20 06:31N 40°40' W 074°00'0 0.0
2017-Oct-20 06:00N 40°40' W 074°00'0 0.0
2017-Oct-20 05:30N 40°40' W 074°00'0 0.0
2017-Oct-20 05:01N 40°40' W 074°00'0 0.0
2017-Oct-20 04:30N 40°40' W 074°00'0 0.0
2017-Oct-20 04:01N 40°40' W 074°00'0 0.0
2017-Oct-20 03:30N 40°40' W 074°00'0 0.0
2017-Oct-20 03:01N 40°40' W 074°00'0 0.0
2017-Oct-20 02:31N 40°40' W 074°00'0 0.0
2017-Oct-20 02:00N 40°40' W 074°00'0 0.0
2017-Oct-20 01:30N 40°40' W 074°00'0 0.0
2017-Oct-20 01:01N 40°40' W 074°00'0 0.0
2017-Oct-20 00:31N 40°40' W 074°00'0 0.0
2017-Oct-20 00:00N 40°40' W 074°00'0 0.0
2017-Oct-19 23:30N 40°40' W 074°00'1 2.9
2017-Oct-19 23:01N 40°41' W 074°02'1 1.8
2017-Oct-19 22:30N 40°41' W 074°03'0 0.4
2017-Oct-19 22:00N 40°41' W 074°03'2 4.2
2017-Oct-19 21:31N 40°40' W 074°00'0 0.1
2017-Oct-19 21:01N 40°40' W 074°00'0 0.0
2017-Oct-19 16:14N 40°40' W 074°00'0 0.2
2017-Oct-19 16:00N 40°40' W 074°00'0 0.0
2017-Oct-19 15:31N 40°40' W 074°00'0 0.1
2017-Oct-19 15:01N 40°40' W 074°00'0 0.0
2017-Oct-19 14:31N 40°40' W 074°00'0 0.0
2017-Oct-19 14:00N 40°40' W 074°00'0 0.0
2017-Oct-19 13:31N 40°40' W 074°00'0 0.0
2017-Oct-19 13:01N 40°40' W 074°00'0 0.0
2017-Oct-19 12:31N 40°40' W 074°00'0 0.0
2017-Oct-19 12:01N 40°40' W 074°00'0 0.0
2017-Oct-19 11:30N 40°40' W 074°00'0 0.0
2017-Oct-19 11:01N 40°40' W 074°00'0 0.0
2017-Oct-19 10:31N 40°40' W 074°00'0 0.0
2017-Oct-19 10:01N 40°40' W 074°00'0 0.0
2017-Oct-19 09:31N 40°40' W 074°00'0 0.0
2017-Oct-19 09:01N 40°40' W 074°00'0 0.0
2017-Oct-19 08:31N 40°40' W 074°00'0 0.0
2017-Oct-19 08:00N 40°40' W 074°00'0 0.0
2017-Oct-19 07:31N 40°40' W 074°00'0 0.0
2017-Oct-19 07:00N 40°40' W 074°00'0 0.5
2017-Oct-19 06:31N 40°40' W 074°00'2 4.0
2017-Oct-19 06:00N 40°40' W 074°03'1 2.0
2017-Oct-19 05:30N 40°41' W 074°03'3 5.4
2017-Oct-19 05:00N 40°39' W 074°05'0 0.1
2017-Oct-19 04:30N 40°39' W 074°05'0 0.5
2017-Oct-19 03:59N 40°39' W 074°06'0 0.0
2017-Oct-19 03:30N 40°39' W 074°06'0 0.0
2017-Oct-19 03:00N 40°39' W 074°06'0 0.0
2017-Oct-19 02:30N 40°39' W 074°06'0 0.0
2017-Oct-19 02:00N 40°39' W 074°06'0 0.0
2017-Oct-19 01:30N 40°39' W 074°06'0 0.0
2017-Oct-19 01:01N 40°39' W 074°06'0 0.0
2017-Oct-19 00:30N 40°39' W 074°06'1 1.5
2017-Oct-19 00:01N 40°39' W 074°05'0 0.3
2017-Oct-18 23:30N 40°39' W 074°05'3 6.7
2017-Oct-18 23:01N 40°40' W 074°01'1 1.1
2017-Oct-18 22:30N 40°40' W 074°00'0 0.0
2017-Oct-18 22:00N 40°40' W 074°00'0 0.0
2017-Oct-18 21:30N 40°40' W 074°00'0 0.0
2017-Oct-18 21:01N 40°40' W 074°00'2 4.8
2017-Oct-18 20:31N 40°39' W 074°03'3 6.0
2017-Oct-18 20:00N 40°39' W 074°07'1 1.8
2017-Oct-18 19:30N 40°39' W 074°06'1 1.3
2017-Oct-18 19:00N 40°39' W 074°05'4 7.6
2017-Oct-18 18:31N 40°40' W 074°00'0 0.1
2017-Oct-18 18:00N 40°40' W 074°00'0 0.0
2017-Oct-18 17:30N 40°40' W 074°00'0 0.0
2017-Oct-18 17:01N 40°40' W 074°00'0 0.0
2017-Oct-18 16:30N 40°40' W 074°00'0 0.0
2017-Oct-18 16:00N 40°40' W 074°00'0 0.0
2017-Oct-18 15:31N 40°40' W 074°00'0 0.0
2017-Oct-18 15:00N 40°40' W 074°00'0 0.0
2017-Oct-18 14:00N 40°40' W 074°00'1 2.7
2017-Oct-18 13:30N 40°41' W 074°02'1 1.8
2017-Oct-18 13:01N 40°41' W 074°03'1 2.8
2017-Oct-18 12:30N 40°40' W 074°01'1 1.7
2017-Oct-18 12:01N 40°40' W 074°00'0 0.1
2017-Oct-18 11:30N 40°40' W 074°00'0 0.0
2017-Oct-18 11:00N 40°40' W 074°00'0 0.0
2017-Oct-18 10:30N 40°40' W 074°00'0 0.0
2017-Oct-18 10:01N 40°40' W 074°00'0 0.0
2017-Oct-18 09:30N 40°40' W 074°00'0 0.0
2017-Oct-18 09:01N 40°40' W 074°00'0 0.0
2017-Oct-18 08:31N 40°40' W 074°00'0 0.0
2017-Oct-18 08:00N 40°40' W 074°00'0 0.0
2017-Oct-18 07:31N 40°40' W 074°00'0 0.0
2017-Oct-18 07:01N 40°40' W 074°00'0 0.0
2017-Oct-18 06:30N 40°40' W 074°00'0 0.1
2017-Oct-18 06:00N 40°40' W 074°00'4 7.6
2017-Oct-18 05:30N 40°39' W 074°05'4 8.7
2017-Oct-18 05:00N 40°39' W 074°11'1 1.8
2017-Oct-18 04:30N 40°38' W 074°12'1 1.2
2017-Oct-18 04:00N 40°38' W 074°12'3 5.0
2017-Oct-18 03:30N 40°39' W 074°09'3 6.1
2017-Oct-18 03:01N 40°39' W 074°05'4 7.2
2017-Oct-18 02:30N 40°40' W 074°00'0 0.4
2017-Oct-18 02:00N 40°40' W 074°00'0 0.0
2017-Oct-18 01:31N 40°40' W 074°00'0 0.0
2017-Oct-18 01:01N 40°40' W 074°00'0 0.0
2017-Oct-18 00:30N 40°40' W 074°00'0 0.0
2017-Oct-18 00:00N 40°40' W 074°00'0 0.0
2017-Oct-17 23:30N 40°40' W 074°00'2 4.1
2017-Oct-17 23:01N 40°39' W 074°02'3 6.8
2017-Oct-17 22:31N 40°39' W 074°07'4 7.3
2017-Oct-17 22:00N 40°38' W 074°12'2 4.5
2017-Oct-17 21:30N 40°36' W 074°12'0 0.0
2017-Oct-17 21:00N 40°36' W 074°12'0 0.0
2017-Oct-17 20:30N 40°36' W 074°12'0 0.0
2017-Oct-17 20:00N 40°36' W 074°12'0 0.0
2017-Oct-17 19:29N 40°36' W 074°12'0 0.0
2017-Oct-17 19:00N 40°36' W 074°12'0 0.0
2017-Oct-17 18:30N 40°36' W 074°12'0 0.0
2017-Oct-17 18:00N 40°36' W 074°12'0 0.0
2017-Oct-17 17:29N 40°36' W 074°12'0 0.0
2017-Oct-17 17:00N 40°36' W 074°12'0 0.0
2017-Oct-17 16:30N 40°36' W 074°12'0 0.0
2017-Oct-17 16:00N 40°36' W 074°12'0 0.0
2017-Oct-17 15:30N 40°36' W 074°12'0 0.0
2017-Oct-17 14:59N 40°36' W 074°12'0 0.0
2017-Oct-17 14:30N 40°36' W 074°12'0 0.0
2017-Oct-17 14:00N 40°36' W 074°12'0 0.0
2017-Oct-17 13:30N 40°36' W 074°12'0 0.0
2017-Oct-17 12:59N 40°36' W 074°12'0 0.0
2017-Oct-17 12:30N 40°36' W 074°12'0 0.0
2017-Oct-17 12:00N 40°36' W 074°12'0 0.0
2017-Oct-17 11:30N 40°36' W 074°12'0 0.0
2017-Oct-17 11:00N 40°36' W 074°12'0 0.0
2017-Oct-17 10:30N 40°36' W 074°12'0 0.0
2017-Oct-17 10:00N 40°36' W 074°12'1 1.2
2017-Oct-17 09:29N 40°37' W 074°12'2 5.0
2017-Oct-17 09:01N 40°39' W 074°11'4 7.3
2017-Oct-17 08:30N 40°39' W 074°06'3 6.0
2017-Oct-17 08:01N 40°41' W 074°03'0 0.2
2017-Oct-17 07:31N 40°41' W 074°03'0 0.0
2017-Oct-17 07:00N 40°41' W 074°03'1 2.4
2017-Oct-17 06:30N 40°40' W 074°04'4 7.1
2017-Oct-17 06:00N 40°39' W 074°08'2 4.8
2017-Oct-17 05:30N 40°41' W 074°09'0 0.2
2017-Oct-17 05:00N 40°41' W 074°09'2 4.7
2017-Oct-17 04:30N 40°39' W 074°08'2 3.7
2017-Oct-17 04:00N 40°39' W 074°06'0 0.0
2017-Oct-17 03:30N 40°39' W 074°06'0 0.0
2017-Oct-17 03:00N 40°39' W 074°06'0 0.0
2017-Oct-17 02:30N 40°39' W 074°06'0 0.0
2017-Oct-17 02:00N 40°39' W 074°06'0 0.0
2017-Oct-17 01:30N 40°39' W 074°06'0 0.0
2017-Oct-17 01:00N 40°39' W 074°06'0 0.0
2017-Oct-17 00:30N 40°39' W 074°06'0 0.0
2017-Oct-17 00:00N 40°39' W 074°06'0 0.0
2017-Oct-16 23:30N 40°39' W 074°06'0 0.0
2017-Oct-16 23:00N 40°39' W 074°06'0 0.0
2017-Oct-16 22:30N 40°39' W 074°06'0 0.0
2017-Oct-16 22:00N 40°39' W 074°06'0 0.0
2017-Oct-16 21:30N 40°39' W 074°06'4 7.2
2017-Oct-16 21:00N 40°41' W 074°02'1 2.9
2017-Oct-16 20:31N 40°40' W 074°00'0 0.1
2017-Oct-16 20:01N 40°40' W 074°00'4 7.3
2017-Oct-16 19:30N 40°39' W 074°05'3 5.8
2017-Oct-16 19:00N 40°39' W 074°09'2 3.3
2017-Oct-16 18:30N 40°41' W 074°09'0 0.0
2017-Oct-16 18:01N 40°41' W 074°09'0 0.0
2017-Oct-16 17:30N 40°41' W 074°09'1 2.2
2017-Oct-16 17:00N 40°40' W 074°09'2 3.0
2017-Oct-16 16:29N 40°39' W 074°07'1 0.9
2017-Oct-16 15:30N 40°39' W 074°06'0 0.0
2017-Oct-16 15:00N 40°39' W 074°06'0 0.0
2017-Oct-16 14:30N 40°39' W 074°06'0 0.0
2017-Oct-16 13:30N 40°39' W 074°06'0 0.0
2017-Oct-16 13:00N 40°39' W 074°06'0 0.0
2017-Oct-16 12:30N 40°39' W 074°06'0 0.0
2017-Oct-16 12:00N 40°39' W 074°06'0 0.0
2017-Oct-16 11:30N 40°39' W 074°06'0 0.7
2017-Oct-16 11:01N 40°39' W 074°06'0 0.7
2017-Oct-16 10:30N 40°39' W 074°06'0 0.0
2017-Oct-16 10:00N 40°39' W 074°06'0 0.0
2017-Oct-16 09:30N 40°39' W 074°06'0 0.0
2017-Oct-16 09:00N 40°39' W 074°06'0 0.0
2017-Oct-16 08:30N 40°39' W 074°06'0 0.0
2017-Oct-16 08:01N 40°39' W 074°06'0 0.0
2017-Oct-16 07:31N 40°39' W 074°06'0 0.0
2017-Oct-16 07:01N 40°39' W 074°06'0 0.0
2017-Oct-16 06:30N 40°39' W 074°06'0 0.0
2017-Oct-16 06:00N 40°39' W 074°06'0 0.0
2017-Oct-16 05:30N 40°39' W 074°06'0 0.1
2017-Oct-16 05:00N 40°39' W 074°06'1 1.1
2017-Oct-16 04:31N 40°39' W 074°06'1 1.7
2017-Oct-16 04:00N 40°39' W 074°05'3 5.1
2017-Oct-16 03:30N 40°40' W 074°03'0 0.7
2017-Oct-16 03:00N 40°41' W 074°03'0 0.0
2017-Oct-16 02:31N 40°41' W 074°03'0 0.0
2017-Oct-16 02:00N 40°41' W 074°03'0 0.0
2017-Oct-16 01:31N 40°41' W 074°03'0 0.2
2017-Oct-16 01:00N 40°41' W 074°03'1 2.4
2017-Oct-16 00:31N 40°40' W 074°01'1 2.3
2017-Oct-16 00:00N 40°40' W 074°00'0 0.0
2017-Oct-15 23:31N 40°40' W 074°00'0 0.0
2017-Oct-15 23:01N 40°40' W 074°00'0 0.0
2017-Oct-15 22:30N 40°40' W 074°00'0 0.0
2017-Oct-15 22:00N 40°40' W 074°00'0 0.0
2017-Oct-15 21:31N 40°40' W 074°00'0 0.0
2017-Oct-15 21:00N 40°40' W 074°00'0 0.0
2017-Oct-15 20:31N 40°40' W 074°00'0 0.0
2017-Oct-15 20:00N 40°40' W 074°00'0 0.1
2017-Oct-15 19:30N 40°40' W 074°00'0 0.0
2017-Oct-15 19:01N 40°40' W 074°00'0 0.0
2017-Oct-15 18:30N 40°40' W 074°00'0 0.0
2017-Oct-15 18:00N 40°40' W 074°00'0 0.0
2017-Oct-15 17:30N 40°40' W 074°00'0 0.0
2017-Oct-15 17:00N 40°40' W 074°00'0 0.0
2017-Oct-15 16:31N 40°40' W 074°00'0 0.0
2017-Oct-15 16:00N 40°40' W 074°00'0 0.0
2017-Oct-15 15:31N 40°40' W 074°00'0 0.0
2017-Oct-15 15:00N 40°40' W 074°00'6 5.7
2017-Oct-15 14:00N 40°39' W 074°07'4 7.4
2017-Oct-15 13:30N 40°37' W 074°12'2 4.5
2017-Oct-15 12:59N 40°35' W 074°13'0 0.0
2017-Oct-15 12:29N 40°35' W 074°13'0 0.0
2017-Oct-15 11:46N 40°35' W 074°13'0 0.0
2017-Oct-15 11:26N 40°35' W 074°13'0 0.0
2017-Oct-15 11:00N 40°35' W 074°13'0 0.0
2017-Oct-15 10:29N 40°35' W 074°13'0 0.0
2017-Oct-15 09:58N 40°35' W 074°13'0 0.0
2017-Oct-15 09:21N 40°35' W 074°13'0 0.0
2017-Oct-15 08:58N 40°35' W 074°13'0 0.0
2017-Oct-15 08:30N 40°35' W 074°13'0 0.0
2017-Oct-15 07:58N 40°35' W 074°13'0 0.0
2017-Oct-15 07:28N 40°35' W 074°13'0 0.0
2017-Oct-15 06:59N 40°35' W 074°13'0 0.0
2017-Oct-15 06:22N 40°35' W 074°13'0 0.0
2017-Oct-15 05:59N 40°35' W 074°13'0 0.0
2017-Oct-15 05:28N 40°35' W 074°13'0 0.0
2017-Oct-15 04:58N 40°35' W 074°13'0 0.0
2017-Oct-15 04:29N 40°35' W 074°13'0 0.0
2017-Oct-15 03:59N 40°35' W 074°13'0 0.0
2017-Oct-15 03:29N 40°35' W 074°13'0 0.0
2017-Oct-15 02:59N 40°35' W 074°13'0 0.0
2017-Oct-15 02:30N 40°35' W 074°13'0 0.0
2017-Oct-15 02:00N 40°35' W 074°13'0 0.0
2017-Oct-15 01:28N 40°35' W 074°13'0 0.0
2017-Oct-15 00:58N 40°35' W 074°13'0 0.0
2017-Oct-15 00:30N 40°35' W 074°13'0 0.2
2017-Oct-14 23:57N 40°35' W 074°12'2 5.4
2017-Oct-14 23:29N 40°38' W 074°12'0 0.2
2017-Oct-14 22:55N 40°38' W 074°12'0 0.1
2017-Oct-14 22:30N 40°38' W 074°12'0 0.0
2017-Oct-14 21:59N 40°38' W 074°12'0 0.0
2017-Oct-14 21:30N 40°38' W 074°12'0 0.0
2017-Oct-14 21:00N 40°38' W 074°12'0 0.0
2017-Oct-14 20:31N 40°38' W 074°12'0 0.0
2017-Oct-14 20:00N 40°38' W 074°12'0 0.0
2017-Oct-14 19:30N 40°38' W 074°12'0 0.0
2017-Oct-14 19:00N 40°38' W 074°12'0 0.0
2017-Oct-14 18:30N 40°38' W 074°12'0 0.0
2017-Oct-14 18:00N 40°38' W 074°12'0 0.0
2017-Oct-14 17:30N 40°38' W 074°12'0 0.0
2017-Oct-14 17:00N 40°38' W 074°12'0 0.0
2017-Oct-14 16:30N 40°38' W 074°12'0 0.0
2017-Oct-14 16:01N 40°38' W 074°12'0 0.0
2017-Oct-14 15:30N 40°38' W 074°12'0 0.0
2017-Oct-14 15:01N 40°38' W 074°12'0 0.0
2017-Oct-14 14:30N 40°38' W 074°12'0 0.0
2017-Oct-14 14:00N 40°38' W 074°12'0 0.0
2017-Oct-14 13:30N 40°38' W 074°12'0 0.0
2017-Oct-14 13:01N 40°38' W 074°12'0 0.0
2017-Oct-14 12:31N 40°38' W 074°12'0 0.0
2017-Oct-14 12:01N 40°38' W 074°12'0 0.0
2017-Oct-14 11:30N 40°38' W 074°12'0 0.0
2017-Oct-14 11:00N 40°38' W 074°12'0 0.0
2017-Oct-14 10:30N 40°38' W 074°12'0 0.0
2017-Oct-14 10:00N 40°38' W 074°12'0 0.0
2017-Oct-14 09:30N 40°38' W 074°12'0 0.0
2017-Oct-14 09:00N 40°38' W 074°12'0 0.8
2017-Oct-14 08:30N 40°38' W 074°12'4 6.7
2017-Oct-14 07:59N 40°39' W 074°08'2 4.6
2017-Oct-14 07:30N 40°39' W 074°05'3 5.7
2017-Oct-14 07:01N 40°40' W 074°01'1 1.1
2017-Oct-14 06:20N 40°40' W 074°00'0 0.0
2017-Oct-14 06:01N 40°40' W 074°00'0 0.0
2017-Oct-14 05:30N 40°40' W 074°00'0 0.0
2017-Oct-14 05:00N 40°40' W 074°00'0 0.0
2017-Oct-14 04:29N 40°40' W 074°00'0 0.0
2017-Oct-14 03:58N 40°40' W 074°00'0 0.0
2017-Oct-14 03:30N 40°40' W 074°00'2 4.9
2017-Oct-14 03:00N 40°39' W 074°03'4 8.7
2017-Oct-14 02:30N 40°39' W 074°09'2 4.9
2017-Oct-14 02:01N 40°38' W 074°12'0 0.0
2017-Oct-14 01:31N 40°38' W 074°12'0 0.0
2017-Oct-14 01:00N 40°38' W 074°12'0 0.0
2017-Oct-14 00:30N 40°38' W 074°12'2 3.6
2017-Oct-14 00:00N 40°39' W 074°09'4 8.1
2017-Oct-13 23:30N 40°39' W 074°04'3 6.4
2017-Oct-13 22:59N 40°40' W 074°00'0 0.0
2017-Oct-13 22:30N 40°40' W 074°00'0 0.0
2017-Oct-13 22:00N 40°40' W 074°00'0 0.0
2017-Oct-13 21:30N 40°40' W 074°00'0 0.0
2017-Oct-13 21:00N 40°40' W 074°00'0 0.0
2017-Oct-13 20:30N 40°40' W 074°00'0 0.1
2017-Oct-13 20:00N 40°40' W 074°00'0 0.0
2017-Oct-13 19:30N 40°40' W 074°00'0 0.1
2017-Oct-13 19:00N 40°40' W 074°00'0 0.2
2017-Oct-13 18:30N 40°40' W 074°00'0 0.1
2017-Oct-13 18:00N 40°40' W 074°00'0 0.0
2017-Oct-13 17:30N 40°40' W 074°00'0 0.0
2017-Oct-13 17:00N 40°40' W 074°00'0 0.0
2017-Oct-13 16:30N 40°40' W 074°00'0 0.0
2017-Oct-13 16:00N 40°40' W 074°00'0 0.0
2017-Oct-13 15:30N 40°40' W 074°00'0 0.0
2017-Oct-13 15:00N 40°40' W 074°00'0 0.0
2017-Oct-13 14:30N 40°40' W 074°00'0 0.0
2017-Oct-13 14:00N 40°40' W 074°00'0 0.0
2017-Oct-13 13:30N 40°40' W 074°00'0 0.0
2017-Oct-13 13:00N 40°40' W 074°00'0 0.0
2017-Oct-13 12:30N 40°40' W 074°00'0 0.0
2017-Oct-13 11:59N 40°40' W 074°00'0 0.0
2017-Oct-13 11:30N 40°40' W 074°00'0 0.0
2017-Oct-13 11:00N 40°40' W 074°00'0 0.0
2017-Oct-13 10:30N 40°40' W 074°00'0 0.0
2017-Oct-13 10:00N 40°40' W 074°00'0 0.0
2017-Oct-13 09:30N 40°40' W 074°00'0 0.0
2017-Oct-13 09:00N 40°40' W 074°00'0 0.0
2017-Oct-13 08:30N 40°40' W 074°00'2 3.3
2017-Oct-13 08:00N 40°40' W 074°02'4 7.9
2017-Oct-13 07:30N 40°39' W 074°07'1 1.5
2017-Oct-13 07:00N 40°39' W 074°06'3 5.7
2017-Oct-13 06:30N 40°41' W 074°03'2 4.2
2017-Oct-13 06:00N 40°40' W 074°00'0 0.3
2017-Oct-13 05:30N 40°40' W 074°00'0 0.0
2017-Oct-13 05:00N 40°40' W 074°00'0 0.0
2017-Oct-13 04:30N 40°40' W 074°00'0 0.0
2017-Oct-13 04:00N 40°40' W 074°00'0 0.0
2017-Oct-13 03:29N 40°40' W 074°00'0 0.0
2017-Oct-13 03:00N 40°40' W 074°00'0 0.0
2017-Oct-13 02:30N 40°40' W 074°00'0 0.0
2017-Oct-13 02:00N 40°40' W 074°00'0 0.0
2017-Oct-13 01:30N 40°40' W 074°00'0 0.0
2017-Oct-13 01:00N 40°40' W 074°00'0 0.0
2017-Oct-13 00:29N 40°40' W 074°00'0 0.1
2017-Oct-13 00:00N 40°40' W 074°00'1 1.8
2017-Oct-12 23:30N 40°40' W 074°01'1 2.8
2017-Oct-12 23:00N 40°41' W 074°03'0 0.1
2017-Oct-12 22:31N 40°41' W 074°03'2 4.3
2017-Oct-12 22:00N 40°40' W 074°00'0 0.1
2017-Oct-12 21:30N 40°40' W 074°00'0 0.0
2017-Oct-12 21:00N 40°40' W 074°00'0 0.0
2017-Oct-12 20:30N 40°40' W 074°00'0 0.0
2017-Oct-12 19:59N 40°40' W 074°00'0 0.0
2017-Oct-12 19:30N 40°40' W 074°00'0 0.0
2017-Oct-12 19:00N 40°40' W 074°00'0 0.0
2017-Oct-12 18:30N 40°40' W 074°00'0 0.0
2017-Oct-12 18:00N 40°40' W 074°00'0 0.0
2017-Oct-12 17:30N 40°40' W 074°00'0 0.0
2017-Oct-12 17:00N 40°40' W 074°00'0 0.0
2017-Oct-12 16:30N 40°40' W 074°00'0 0.0
2017-Oct-12 16:01N 40°40' W 074°00'0 0.0
2017-Oct-12 15:30N 40°40' W 074°00'0 0.0
2017-Oct-12 15:00N 40°40' W 074°00'0 0.0
2017-Oct-12 14:30N 40°40' W 074°00'0 0.0
2017-Oct-12 14:00N 40°40' W 074°00'0 0.0
2017-Oct-12 13:30N 40°40' W 074°00'0 0.0
2017-Oct-12 13:00N 40°40' W 074°00'0 0.0
2017-Oct-12 12:31N 40°40' W 074°00'0 0.0
2017-Oct-12 12:00N 40°40' W 074°00'0 0.0
2017-Oct-12 11:30N 40°40' W 074°00'0 0.0
2017-Oct-12 11:00N 40°40' W 074°00'0 0.0
2017-Oct-12 10:30N 40°40' W 074°00'0 0.0
2017-Oct-12 10:00N 40°40' W 074°00'0 0.0
2017-Oct-12 09:30N 40°40' W 074°00'0 0.0
2017-Oct-12 09:00N 40°40' W 074°00'0 0.0
2017-Oct-12 08:30N 40°40' W 074°00'0 0.0
2017-Oct-12 08:00N 40°40' W 074°00'0 0.0
2017-Oct-12 07:30N 40°40' W 074°00'0 0.0
2017-Oct-12 07:00N 40°40' W 074°00'0 0.0
2017-Oct-12 06:30N 40°40' W 074°00'0 0.0
2017-Oct-12 06:00N 40°40' W 074°00'0 0.0
2017-Oct-12 05:30N 40°40' W 074°00'0 0.0
2017-Oct-12 05:00N 40°40' W 074°00'0 0.0
2017-Oct-12 04:30N 40°40' W 074°00'0 0.0
2017-Oct-12 04:00N 40°40' W 074°00'0 0.0
2017-Oct-12 03:30N 40°40' W 074°00'0 0.0
2017-Oct-12 03:00N 40°40' W 074°00'0 0.0
2017-Oct-12 02:31N 40°40' W 074°00'0 0.0
2017-Oct-12 02:00N 40°40' W 074°00'0 0.0
2017-Oct-12 01:30N 40°40' W 074°00'0 0.0
2017-Oct-12 01:00N 40°40' W 074°00'0 0.0
2017-Oct-12 00:30N 40°40' W 074°00'0 0.0
2017-Oct-12 00:00N 40°40' W 074°00'1 1.9
2017-Oct-11 23:30N 40°40' W 074°01'1 2.7
2017-Oct-11 23:00N 40°41' W 074°03'0 0.0
2017-Oct-11 22:30N 40°41' W 074°03'0 0.0
2017-Oct-11 22:00N 40°41' W 074°03'0 0.0
2017-Oct-11 21:30N 40°41' W 074°03'0 0.1
2017-Oct-11 21:00N 40°41' W 074°03'0 0.0
2017-Oct-11 20:30N 40°41' W 074°03'0 0.0
2017-Oct-11 20:00N 40°41' W 074°03'0 0.0
2017-Oct-11 19:30N 40°41' W 074°03'0 0.1
2017-Oct-11 18:58N 40°41' W 074°03'0 0.1
2017-Oct-11 18:30N 40°41' W 074°03'0 0.1
2017-Oct-11 18:00N 40°41' W 074°03'0 0.0
2017-Oct-11 17:31N 40°41' W 074°03'0 0.1
2017-Oct-11 17:00N 40°41' W 074°03'2 0.1
2017-Oct-11 00:00N 40°40' W 074°00'0 0.0
2017-Oct-10 23:30N 40°40' W 074°00'0 0.0
2017-Oct-10 23:00N 40°40' W 074°00'0 0.0
2017-Oct-10 22:31N 40°40' W 074°00'0 0.0
2017-Oct-10 22:00N 40°40' W 074°00'0 0.0
2017-Oct-10 21:31N 40°40' W 074°00'0 0.0
2017-Oct-10 21:00N 40°40' W 074°00'0 0.0
2017-Oct-10 20:31N 40°40' W 074°00'0 0.0
2017-Oct-10 20:01N 40°40' W 074°00'0 0.0
2017-Oct-10 19:31N 40°40' W 074°00'0 0.0
2017-Oct-10 19:01N 40°40' W 074°00'0 0.0
2017-Oct-10 18:30N 40°40' W 074°00'0 0.0
2017-Oct-10 18:00N 40°40' W 074°00'0 0.1
2017-Oct-10 17:30N 40°40' W 074°00'0 0.0
2017-Oct-10 17:01N 40°40' W 074°00'0 0.0
2017-Oct-10 16:31N 40°40' W 074°00'0 0.0
2017-Oct-10 16:01N 40°40' W 074°00'0 0.0
2017-Oct-10 15:31N 40°40' W 074°00'0 0.1
2017-Oct-10 15:01N 40°40' W 074°00'0 0.0
2017-Oct-10 14:01N 40°40' W 074°00'0 0.0
2017-Oct-10 13:31N 40°40' W 074°00'  

Dump ship's entire track history